Details for Virgin Australia at YBBN




Go Back


Latest METAR
Local Time

YBBN 232330Z 12007KT 5000 -RA SCT005 BKN010 BKN040 24/23 Q1013 FM2330 03009KT 9000 -SHRA -RA SCT012 BKN020 BKN050 TEMPO 2330/0130 2000 SHRA BKN008

24/02/2018, 09:55:34

Description
Results
Virgin Australia Logo
Number of Pilots based at YBBN
0 Pilots Based here
Number of Virgin Australia Flights Departed from YBBN
2 Flights Departed
Number of Virgin Australia Flights Arrived at YBBN
2 Flights Arrived
Number of Virgin Australia Schedules Departing from YBBN
134 Schedules
Number of Virgin Australia Schedules Arriving at YBBN
131 Schedules
Number of Virgin Australia Schedules Departing from YBBN availible today
88 Schedules Today
Number of Virgin Australia Schedules Arriving at YBBN availible today
87 Schedules Today
Average Landing Rate at YBBN
-196 fpm
Virgin Australia Average Landing Rate at YBBN
-122 fpm
Total Fuel Purchased at YBBN by Virgin Australia
8,313.44 kgs / 18,327.81 lbs

Pilots Based at YBBN


Pilot ID
Pilot Name
Pilot Rank
No. of Flights
No. of Flying Hours
There are no pilots assigned to this hub!   Will you be the first?
Content